Reaute Solosailor — FLRN — position and weather

sailwx.info

Track history (hours):
 
Tides and Currents Weather Stations Pressure Air Temp Water Temp Dewpoint Dewpoint Depression Visibility Wind Speed Wind Dir Waves Ship Positions

Reaute Solosailor

Last reported at 2018-Apr-20 15:58 UTC. Time now 2018-Apr-20 16:17 UTC.
Position N 46°30' W 001°47'.

Length 15 m.

Type: Sailing vessel. MMSI: 228321600.

Date/timePositionNaut miles runAvg speedWind from/ knotsBaromVisibWave heightAir tempDewpointWater temp
2018-Apr-20 15:58N 46°30' W 001°47'0 0.0
2018-Apr-20 15:28N 46°30' W 001°47'0 0.0
2018-Apr-20 14:58N 46°30' W 001°47'0 0.0
2018-Apr-20 14:28N 46°30' W 001°47'0 0.0
2018-Apr-20 13:58N 46°30' W 001°47'0 0.0
2018-Apr-20 13:28N 46°30' W 001°47'0 0.0
2018-Apr-20 05:49N 46°30' W 001°47'0 0.6
2018-Apr-20 05:30N 46°30' W 001°48'1 3.0
2018-Apr-20 05:00N 46°29' W 001°49'3 5.7
2018-Apr-20 04:30N 46°29' W 001°53'4 7.1
2018-Apr-20 04:00N 46°29' W 001°58'8 8.2
2018-Apr-20 02:59N 46°36' W 002°05'1 1.1
2018-Apr-20 02:28N 46°36' W 002°05'12 6.8
2018-Apr-20 00:40N 46°47' W 002°15'2 8.2
2018-Apr-20 00:28N 46°48' W 002°16'3 5.6
2018-Apr-20 00:00N 46°50' W 002°18'22 9.4
2018-Apr-19 21:37N 47°09' W 002°37'1 6.3
2018-Apr-19 21:27N 47°09' W 002°38'30 1.0
2018-Apr-18 13:33N 47°35' W 003°02'0 0.0
2018-Apr-18 13:30N 47°35' W 003°02'0 0.0
2018-Apr-18 12:57N 47°35' W 003°02'0 0.0
2018-Apr-18 12:24N 47°35' W 003°02'0 0.0
2018-Apr-18 11:57N 47°35' W 003°02'0 0.0
2018-Apr-18 11:30N 47°35' W 003°02'0 0.0
2018-Apr-18 11:00N 47°35' W 003°02'0 0.0
2018-Apr-18 10:27N 47°35' W 003°02'1 1.3
2018-Apr-18 09:55N 47°35' W 003°01'2 5.0
2018-Apr-18 09:30N 47°33' W 003°01'611.3
2018-Apr-18 08:58N 47°28' W 002°55'4 8.3
2018-Apr-18 08:30N 47°24' W 002°55'714.9
2018-Apr-18 08:00N 47°30' W 003°02'610.5
2018-Apr-18 07:25N 47°27' W 002°54'816.6
2018-Apr-18 06:57N 47°33' W 003°00'2 0.1
2018-Apr-16 14:40N 47°35' W 003°01'0 0.0
2018-Apr-16 14:28N 47°35' W 003°01'0 0.0
2018-Apr-16 13:58N 47°35' W 003°01'0 0.0
2018-Apr-16 13:25N 47°35' W 003°01'0 0.0
2018-Apr-16 12:58N 47°35' W 003°01'0 0.0
2018-Apr-16 12:28N 47°35' W 003°01'0 0.0
2018-Apr-16 11:58N 47°35' W 003°01'0 0.0
2018-Apr-16 11:28N 47°35' W 003°01'0 0.0
2018-Apr-16 10:58N 47°35' W 003°01'0 0.0
2018-Apr-16 10:25N 47°35' W 003°01'0 0.0
2018-Apr-16 09:58N 47°35' W 003°01'0 0.0
2018-Apr-16 09:22N 47°35' W 003°01'0 0.0
2018-Apr-16 08:55N 47°35' W 003°01'0 0.0
2018-Apr-15 11:43N 47°35' W 003°01'0 0.0
2018-Apr-15 11:27N 47°35' W 003°01'1 2.2
2018-Apr-15 11:00N 47°34' W 003°01'918.1
2018-Apr-15 10:29N 47°28' W 002°51'4 1.6
2018-Apr-15 08:01N 47°26' W 002°55'010.8
2018-Apr-15 08:00N 47°26' W 002°55'713.8
2018-Apr-15 07:30N 47°32' W 002°60'2 4.9
2018-Apr-15 07:00N 47°35' W 003°01'1 0.0
2018-Apr-14 15:49N 47°35' W 003°02'1 3.1
2018-Apr-14 15:30N 47°34' W 003°01'14 6.7
2018-Apr-14 13:25N 47°20' W 003°02'613.4
2018-Apr-14 12:59N 47°26' W 002°60'713.8
2018-Apr-14 12:30N 47°33' W 003°01'3 4.7
2018-Apr-14 11:58N 47°35' W 003°02'0 0.0
2018-Apr-14 11:28N 47°35' W 003°02'0 0.0
2018-Apr-14 10:58N 47°35' W 003°02'0 0.0
2018-Apr-14 10:28N 47°35' W 003°02'0 0.0
2018-Apr-14 09:58N 47°35' W 003°02'0 0.0
2018-Apr-14 09:22N 47°35' W 003°02'0 0.0
2018-Apr-13 14:54N 47°35' W 003°02'0 0.0
2018-Apr-13 14:30N 47°35' W 003°02'0 0.0
2018-Apr-13 14:00N 47°35' W 003°02'0 0.0
2018-Apr-13 13:30N 47°35' W 003°02'0 0.0
2018-Apr-13 12:57N 47°35' W 003°02'0 0.0
2018-Apr-13 12:30N 47°35' W 003°02'0 0.0
2018-Apr-13 12:00N 47°35' W 003°02'0 0.0
2018-Apr-13 11:27N 47°35' W 003°02'0 0.0
2018-Apr-13 11:00N 47°35' W 003°02'0 0.0
2018-Apr-13 10:24N 47°35' W 003°02'0 0.0
2018-Apr-13 09:57N 47°35' W 003°02'0 0.0
2018-Apr-13 09:27N 47°35' W 003°02'0 0.0
2018-Apr-13 09:00N 47°35' W 003°02'0 0.0
2018-Apr-13 08:30N 47°35' W 003°02'0 0.0
2018-Apr-12 09:40N 47°35' W 003°01'2 5.0
2018-Apr-12 09:19N 47°34' W 003°00'2 7.4
2018-Apr-12 09:00N 47°31' W 003°01'5 8.9
2018-Apr-12 08:26N 47°27' W 003°04'4 7.8
2018-Apr-12 07:58N 47°27' W 003°10'21 1.5
2018-Apr-11 18:07N 47°39' W 003°36'2 5.7
2018-Apr-11 17:51N 47°37' W 003°35'410.3
2018-Apr-11 17:29N 47°34' W 003°33'4 7.4
2018-Apr-11 17:00N 47°34' W 003°28'510.2
2018-Apr-11 16:30N 47°36' W 003°21'4 7.7
2018-Apr-11 16:00N 47°33' W 003°17'1010.3
2018-Apr-11 15:00N 47°23' W 003°13'610.7
2018-Apr-11 14:29N 47°26' W 003°06'4 8.9
2018-Apr-11 13:59N 47°29' W 003°01'3 7.0
2018-Apr-11 13:30N 47°32' W 003°01'2 4.9
2018-Apr-11 13:00N 47°35' W 003°01'  
Track history (hours):
 
Tides and Currents Weather Stations Pressure Air Temp Water Temp Dewpoint Dewpoint Depression Visibility Wind Speed Wind Dir Waves Ship Positions

Reaute Solosailor

Last reported at 2018-Apr-20 15:58 UTC. Time now 2018-Apr-20 16:17 UTC.
Position N 46°30' W 001°47'.

Length 15 m.

Type: Sailing vessel. MMSI: 228321600.

Date/timePositionNaut miles runAvg speedWind from/ knotsBaromVisibWave heightAir tempDewpointWater temp
2018-Apr-20 15:58N 46°30' W 001°47'0 0.0
2018-Apr-20 15:28N 46°30' W 001°47'0 0.0
2018-Apr-20 14:58N 46°30' W 001°47'0 0.0
2018-Apr-20 14:28N 46°30' W 001°47'0 0.0
2018-Apr-20 13:58N 46°30' W 001°47'0 0.0
2018-Apr-20 13:28N 46°30' W 001°47'0 0.0
2018-Apr-20 05:49N 46°30' W 001°47'0 0.6
2018-Apr-20 05:30N 46°30' W 001°48'1 3.0
2018-Apr-20 05:00N 46°29' W 001°49'3 5.7
2018-Apr-20 04:30N 46°29' W 001°53'4 7.1
2018-Apr-20 04:00N 46°29' W 001°58'8 8.2
2018-Apr-20 02:59N 46°36' W 002°05'1 1.1
2018-Apr-20 02:28N 46°36' W 002°05'12 6.8
2018-Apr-20 00:40N 46°47' W 002°15'2 8.2
2018-Apr-20 00:28N 46°48' W 002°16'3 5.6
2018-Apr-20 00:00N 46°50' W 002°18'22 9.4
2018-Apr-19 21:37N 47°09' W 002°37'1 6.3
2018-Apr-19 21:27N 47°09' W 002°38'30 1.0
2018-Apr-18 13:33N 47°35' W 003°02'0 0.0
2018-Apr-18 13:30N 47°35' W 003°02'0 0.0
2018-Apr-18 12:57N 47°35' W 003°02'0 0.0
2018-Apr-18 12:24N 47°35' W 003°02'0 0.0
2018-Apr-18 11:57N 47°35' W 003°02'0 0.0
2018-Apr-18 11:30N 47°35' W 003°02'0 0.0
2018-Apr-18 11:00N 47°35' W 003°02'0 0.0
2018-Apr-18 10:27N 47°35' W 003°02'1 1.3
2018-Apr-18 09:55N 47°35' W 003°01'2 5.0
2018-Apr-18 09:30N 47°33' W 003°01'611.3
2018-Apr-18 08:58N 47°28' W 002°55'4 8.3
2018-Apr-18 08:30N 47°24' W 002°55'714.9
2018-Apr-18 08:00N 47°30' W 003°02'610.5
2018-Apr-18 07:25N 47°27' W 002°54'816.6
2018-Apr-18 06:57N 47°33' W 003°00'2 0.1
2018-Apr-16 14:40N 47°35' W 003°01'0 0.0
2018-Apr-16 14:28N 47°35' W 003°01'0 0.0
2018-Apr-16 13:58N 47°35' W 003°01'0 0.0
2018-Apr-16 13:25N 47°35' W 003°01'0 0.0
2018-Apr-16 12:58N 47°35' W 003°01'0 0.0
2018-Apr-16 12:28N 47°35' W 003°01'0 0.0
2018-Apr-16 11:58N 47°35' W 003°01'0 0.0
2018-Apr-16 11:28N 47°35' W 003°01'0 0.0
2018-Apr-16 10:58N 47°35' W 003°01'0 0.0
2018-Apr-16 10:25N 47°35' W 003°01'0 0.0
2018-Apr-16 09:58N 47°35' W 003°01'0 0.0
2018-Apr-16 09:22N 47°35' W 003°01'0 0.0
2018-Apr-16 08:55N 47°35' W 003°01'0 0.0
2018-Apr-15 11:43N 47°35' W 003°01'0 0.0
2018-Apr-15 11:27N 47°35' W 003°01'1 2.2
2018-Apr-15 11:00N 47°34' W 003°01'918.1
2018-Apr-15 10:29N 47°28' W 002°51'4 1.6
2018-Apr-15 08:01N 47°26' W 002°55'010.8
2018-Apr-15 08:00N 47°26' W 002°55'713.8
2018-Apr-15 07:30N 47°32' W 002°60'2 4.9
2018-Apr-15 07:00N 47°35' W 003°01'1 0.0
2018-Apr-14 15:49N 47°35' W 003°02'1 3.1
2018-Apr-14 15:30N 47°34' W 003°01'14 6.7
2018-Apr-14 13:25N 47°20' W 003°02'613.4
2018-Apr-14 12:59N 47°26' W 002°60'713.8
2018-Apr-14 12:30N 47°33' W 003°01'3 4.7
2018-Apr-14 11:58N 47°35' W 003°02'0 0.0
2018-Apr-14 11:28N 47°35' W 003°02'0 0.0
2018-Apr-14 10:58N 47°35' W 003°02'0 0.0
2018-Apr-14 10:28N 47°35' W 003°02'0 0.0
2018-Apr-14 09:58N 47°35' W 003°02'0 0.0
2018-Apr-14 09:22N 47°35' W 003°02'0 0.0
2018-Apr-13 14:54N 47°35' W 003°02'0 0.0
2018-Apr-13 14:30N 47°35' W 003°02'0 0.0
2018-Apr-13 14:00N 47°35' W 003°02'0 0.0
2018-Apr-13 13:30N 47°35' W 003°02'0 0.0
2018-Apr-13 12:57N 47°35' W 003°02'0 0.0
2018-Apr-13 12:30N 47°35' W 003°02'0 0.0
2018-Apr-13 12:00N 47°35' W 003°02'0 0.0
2018-Apr-13 11:27N 47°35' W 003°02'0 0.0
2018-Apr-13 11:00N 47°35' W 003°02'0 0.0
2018-Apr-13 10:24N 47°35' W 003°02'0 0.0
2018-Apr-13 09:57N 47°35' W 003°02'0 0.0
2018-Apr-13 09:27N 47°35' W 003°02'0 0.0
2018-Apr-13 09:00N 47°35' W 003°02'0 0.0
2018-Apr-13 08:30N 47°35' W 003°02'0 0.0
2018-Apr-12 09:40N 47°35' W 003°01'2 5.0
2018-Apr-12 09:19N 47°34' W 003°00'2 7.4
2018-Apr-12 09:00N 47°31' W 003°01'5 8.9
2018-Apr-12 08:26N 47°27' W 003°04'4 7.8
2018-Apr-12 07:58N 47°27' W 003°10'21 1.5
2018-Apr-11 18:07N 47°39' W 003°36'2 5.7
2018-Apr-11 17:51N 47°37' W 003°35'410.3
2018-Apr-11 17:29N 47°34' W 003°33'4 7.4
2018-Apr-11 17:00N 47°34' W 003°28'510.2
2018-Apr-11 16:30N 47°36' W 003°21'4 7.7
2018-Apr-11 16:00N 47°33' W 003°17'1010.3
2018-Apr-11 15:00N 47°23' W 003°13'610.7
2018-Apr-11 14:29N 47°26' W 003°06'4 8.9
2018-Apr-11 13:59N 47°29' W 003°01'3 7.0
2018-Apr-11 13:30N 47°32' W 003°01'2 4.9
2018-Apr-11 13:00N 47°35' W 003°01'  

Dump ship's entire track history